METAR Reports for Pennsylvania

 

KRYT - Fountain Dale, Pennsylvania, USA
Distance from station: N 63mi, 102km
Updated: Sun, 22-Oct-2017 7:53am EDT
NOT Current
Clear
Clear
 Wind from calm
Wind: Calm
Temperature: 52°F , 11°C
Dew Point: 48°F , 9°C
Humidity: 88%
Barometer: 30.38 inHg , 1028.8 hPa
Clouds: Clear
Visibility: 10 miles , 16 km
2017/10/22 11:53 KRYT 221153Z AUTO 00000KT 10SM CLR 11/09 A3038 RMK AO2 SLP290 T01060094 10117 20083 53009 TSNO $
KTHV - York, Pennsylvania, USA
Distance from station: NNE 131mi, 81km
Updated: Sat, 21-Oct-2017 11:53pm EDT
NOT Current
Clear
Clear
 Wind from calm
Wind: Calm
Temperature: 48°F , 9°C
Dew Point: 45°F , 7°C
Humidity: 87%
Barometer: 30.35 inHg , 1027.8 hPa
Clouds: Clear
Visibility: 10 miles , 16 km
2017/10/22 03:53 KTHV 220353Z AUTO 00000KT 10SM CLR 09/07 A3035 RMK AO2 SLP280 T00890067 $
KCXY - Harrisburg, Pennsylvania, USA
Distance from station: NNE 101mi, 163km
Updated: Sun, 22-Oct-2017 8:56am EDT
Clear
Clear
 Wind from calm
Wind: Calm
Temperature: 54°F , 12°C
Dew Point: 48°F , 9°C
Humidity: 82%
Barometer: 30.41 inHg , 1029.8 hPa
Clouds: Clear
Visibility: 10 miles , 16 km
2017/10/22 12:56 KCXY 221256Z 00000KT 10SM CLR 12/09 A3041 RMK AO2 SLP299 T01170094
 
KMDT - Middletown, Pennsylvania, USA
Distance from station: NNE 102mi, 164km
Updated: Sun, 22-Oct-2017 8:56am EDT
Partly cloudy
Partly cloudy
 Wind from calm
Wind: Calm
Temperature: 52°F , 11°C
Dew Point: 46°F , 8°C
Humidity: 82%
Barometer: 30.40 inHg , 1029.5 hPa
Clouds: Partly cloudy
Visibility: 10 miles , 16 km
Cloud details: Partly cloudy 25000 ft
2017/10/22 12:56 KMDT 221256Z 00000KT 10SM SCT250 11/08 A3040 RMK AO2 SLP297 T01110083
KLNS - Lancaster, Pennsylvania, USA
Distance from station: NNE 108mi, 173km
Updated: Sun, 22-Oct-2017 8:53am EDT
Mist, Clear
Mist, Clear
 Wind from calm
Wind: Calm
Temperature: 52°F , 11°C
Dew Point: 48°F , 9°C
Humidity: 88%
Barometer: 30.41 inHg , 1029.8 hPa
Summary: Mist
Clouds: Clear
Visibility: 6 miles , 10 km
2017/10/22 12:53 KLNS 221253Z 00000KT 6SM BR CLR 11/09 A3041 RMK AO2 SLP298 T01060094
KAOO - Altoona, Pennsylvania, USA
Distance from station: NNW 113mi, 182km
Updated: Sun, 22-Oct-2017 8:53am EDT
Clear
Clear
 Wind from calm
Wind: Calm
Temperature: 54°F , 12°C
Dew Point: 46°F , 8°C
Humidity: 77%
Barometer: 30.38 inHg , 1028.8 hPa
Clouds: Clear
Visibility: 10 miles , 16 km
2017/10/22 12:53 KAOO 221253Z AUTO 00000KT 10SM CLR 12/08 A3038 RMK AO2 SLP286 T01170083
 
KMQS - Coatesville, Pennsylvania, USA
Distance from station: NE 116mi, 186km
Updated: Sun, 22-Oct-2017 9:35am EDT
Clear
Clear
 Wind from calm
Wind: Calm
Temperature: 63°F , 17°C
Dew Point: 50°F , 10°C
Humidity: 64%
Barometer: 30.43 inHg , 1030.5 hPa
Clouds: Clear
Visibility: 10 miles , 16 km
2017/10/22 13:35 KMQS 221335Z AUTO 00000KT 10SM CLR 17/10 A3043 RMK AO2
KMUI - Muir Aaf/Indiant, Pennsylvania, USA
Distance from station: NNE 119mi, 192km
Updated: Sun, 22-Oct-2017 8:58am EDT
Clear
Clear
 Wind from calm
Wind: Calm
Temperature: 48°F , 9°C
Dew Point: 48°F , 9°C
Humidity: 100%
Barometer: 30.41 inHg , 1029.8 hPa
Clouds: Clear
Visibility: 10 miles , 16 km
2017/10/22 12:58 KMUI 221258Z AUTO 00000KT 10SM CLR 09/09 A3041 RMK AO2 SLP302 T00900090
KJST - Johnstown, Pennsylvania, USA
Distance from station: NW 128mi, 206km
Updated: Sun, 22-Oct-2017 8:54am EDT
Clear
Clear
 Wind from S
Wind: S 6 mph , 9 km/h
Temperature: 57°F , 14°C
Dew Point: 48°F , 9°C
Humidity: 72%
Barometer: 30.35 inHg , 1027.8 hPa
Clouds: Clear
Visibility: 10 miles , 16 km
2017/10/22 12:54 KJST 221254Z AUTO 18005KT 10SM CLR 14/09 A3035 RMK AO2 SLP276 T01440094
 
KRDG - Reading, Pennsylvania, USA
Distance from station: NE 132mi, 212km
Updated: Sun, 22-Oct-2017 8:54am EDT
Clear
Clear
 Wind from calm
Wind: Calm
Temperature: 48°F , 9°C
Dew Point: 48°F , 9°C
Humidity: 100%
Barometer: 30.41 inHg , 1029.8 hPa
Clouds: Clear
Visibility: 10 miles , 16 km
2017/10/22 12:54 KRDG 221254Z AUTO 00000KT 10SM CLR 09/09 A3041 RMK AO2 SLP303 T00890089
KPHL - Philadelphia, Pennsylvania, USA
Distance from station: ENE 137mi, 221km
Updated: Sun, 22-Oct-2017 8:54am EDT
Mist, Mostly cloudy
Mist, Mostly cloudy
 Wind from calm
Wind: Calm
Temperature: 54°F , 12°C
Dew Point: 54°F , 12°C
Humidity: 100%
Barometer: 30.43 inHg , 1030.5 hPa
Summary: Mist
Clouds: Mostly cloudy
Visibility: 6 miles , 10 km
Cloud details: Partly cloudy 100 ft
Partly cloudy 25000 ft
Mostly cloudy 30000 ft
2017/10/22 12:54 KPHL 221254Z 00000KT 6SM BR SCT001 SCT250 BKN300 12/12 A3043 RMK AO2 SLP303 VIS E-S 1/4 T01220117
KPTW - Pottstown, Pennsylvania, USA
Distance from station: NE 140mi, 225km
Updated: Sun, 22-Oct-2017 8:54am EDT
Clear
Clear
 Wind from calm
Wind: Calm
Temperature: 48°F , 9°C
Dew Point: 48°F , 9°C
Humidity: 100%
Barometer: 30.43 inHg , 1030.5 hPa
Clouds: Clear
Visibility: 7 miles , 11 km
2017/10/22 12:54 KPTW 221254Z AUTO 00000KT 7SM CLR 09/09 A3043 RMK AO2 SLP303 T00940094
 
KSEG - Selinsgrove, Pennsylvania, USA
Distance from station: N 141mi, 227km
Updated: Sun, 22-Oct-2017 8:53am EDT
Mist, Partly cloudy
Mist, Partly cloudy
 Wind from calm
Wind: Calm
Temperature: 46°F , 8°C
Dew Point: 46°F , 8°C
Humidity: 100%
Barometer: 30.40 inHg , 1029.5 hPa
Summary: Mist
Clouds: Partly cloudy
Visibility: 5 miles , 8 km
Cloud details: Partly cloudy 100 ft
2017/10/22 12:53 KSEG 221253Z AUTO 00000KT 5SM BR SCT001 08/08 A3040 RMK AO2 SLP297 T00780078
KUNV - State College, Pennsylvania, USA
Distance from station: N 142mi, 229km
Updated: Sun, 22-Oct-2017 9:53am EDT
Clear
Clear
 Wind from calm
Wind: Calm
Temperature: 50°F , 10°C
Dew Point: 46°F , 8°C
Humidity: 88%
Barometer: 30.38 inHg , 1028.8 hPa
Clouds: Clear
Visibility: 10 miles , 16 km
2017/10/22 13:53 KUNV 221353Z 00000KT 10SM SKC 10/08 A3038
KLBE - Latrobe/Westmorl, Pennsylvania, USA
Distance from station: NW 145mi, 234km
Updated: Sun, 22-Oct-2017 9:45am EDT
Clear
Clear
 Wind from calm
Wind: Calm
Temperature: 59°F , 15°C
Dew Point: 52°F , 11°C
Humidity: 77%
Barometer: 30.33 inHg , 1027.1 hPa
Clouds: Clear
Visibility: 10 miles , 16 km
2017/10/22 13:45 KLBE 221345Z 00000KT 10SM SKC 15/11 A3033
 
KLOM - Philly Wings F, Pennsylvania, USA
Distance from station: NE 146mi, 236km
Updated: Sun, 22-Oct-2017 9:35am EDT
Clear
Clear
 Wind from calm
Wind: Calm
Temperature: 54°F , 12°C
Dew Point: 46°F , 8°C
Humidity: 77%
Barometer: 30.43 inHg , 1030.5 hPa
Clouds: Clear
Visibility: 10 miles , 16 km
2017/10/22 13:35 KLOM 221335Z AUTO 00000KT 10SM CLR 12/08 A3043 RMK AO1
KIDI - Indiana/Stewart, Pennsylvania, USA
Distance from station: NW 152mi, 245km
Updated: Sun, 22-Oct-2017 9:35am EDT
Clear
Clear
 Wind from calm
Wind: Calm
Temperature: 63°F , 17°C
Dew Point: 54°F , 12°C
Humidity: 73%
Barometer: 30.36 inHg , 1028.1 hPa
Clouds: Clear
Visibility: 10 miles , 16 km
2017/10/22 13:35 KIDI 221335Z AUTO 00000KT 10SM CLR 17/12 A3036 RMK A01
KGKJ - Meadville, Pennsylvania, USA
Distance from station: NW 152mi, 245km
Updated: Sun, 22-Oct-2017 8:53am EDT
Clear
Clear
 Wind from varies
Wind: varies 3 mph , 6 km/h
Temperature: 55°F , 13°C
Dew Point: 48°F , 9°C
Humidity: 77%
Barometer: 30.30 inHg , 1026.1 hPa
Clouds: Clear
Visibility: 10 miles , 16 km
2017/10/22 12:53 KGKJ 221253Z AUTO VRB03KT 10SM CLR 13/09 A3030 RMK AO2 SLP257 T01330094 $
 
KPNE - Philadelphia/Ne, Pennsylvania, USA
Distance from station: NE 155mi, 250km
Updated: Sun, 22-Oct-2017 8:54am EDT
Clear
Clear
 Wind from calm
Wind: Calm
Temperature: 57°F , 14°C
Dew Point: 52°F , 11°C
Humidity: 82%
Barometer: 30.44 inHg , 1030.8 hPa
Clouds: Clear
Visibility: 8 miles , 13 km
2017/10/22 12:54 KPNE 221254Z 00000KT 8SM CLR 14/11 A3044 RMK AO2 SLP307 T01390106 $
KUKT - Quakertown Arp, Pennsylvania, USA
Distance from station: NE 156mi, 250km
Updated: Sun, 22-Oct-2017 9:35am EDT
Clear
Clear
 Wind from calm
Wind: Calm
Temperature: 54°F , 12°C
Dew Point: 48°F , 9°C
Humidity: 82%
Barometer: 30.42 inHg , 1030.1 hPa
Clouds: Clear
Visibility: 10 miles , 16 km
2017/10/22 13:35 KUKT 221335Z AUTO 00000KT 10SM CLR 12/09 A3042 RMK AO1
KXLL - Allentown Queen, Pennsylvania, USA
Distance from station: NE 159mi, 255km
Updated: Sun, 22-Oct-2017 9:35am EDT
Clear
Clear
 Wind from calm
Wind: Calm
Temperature: 52°F , 11°C
Dew Point: 48°F , 9°C
Humidity: 88%
Barometer: 30.42 inHg , 1030.1 hPa
Clouds: Clear
Visibility: 10 miles , 16 km
2017/10/22 13:35 KXLL 221335Z AUTO 00000KT 10SM CLR 11/09 A3042 RMK AO2
 
KDYL - Doylestown, Pennsylvania, USA
Distance from station: NE 161mi, 259km
Updated: Sun, 22-Oct-2017 8:54am EDT
Clear
Clear
 Wind from calm
Wind: Calm
Temperature: 52°F , 11°C
Dew Point: 48°F , 9°C
Humidity: 88%
Barometer: 30.41 inHg , 1029.8 hPa
Clouds: Clear
Visibility: 10 miles , 16 km
2017/10/22 12:54 KDYL 221254Z AUTO 00000KT 10SM CLR 11/09 A3041 RMK AO2 SLP300 T01060089
KFIG - Clearfield, Pennsylvania, USA
Distance from station: NNW 163mi, 262km
Updated: Sun, 22-Oct-2017 8:54am EDT
Clear
Clear
 Wind from NE
Wind: NE 3 mph , 6 km/h
Temperature: 48°F , 9°C
Dew Point: 45°F , 7°C
Humidity: 87%
Barometer: 30.37 inHg , 1028.4 hPa
Clouds: Clear
Visibility: 10 miles , 16 km
2017/10/22 12:54 KFIG 221254Z AUTO 04003KT 10SM CLR 09/07 A3037 RMK AO2 SLP287 T00940067
KABE - Allentown, Pennsylvania, USA
Distance from station: NE 164mi, 264km
Updated: Sun, 22-Oct-2017 9:51am EDT
Clear
Clear
 Wind from calm
Wind: Calm
Temperature: 55°F , 13°C
Dew Point: 46°F , 8°C
Humidity: 72%
Barometer: 30.41 inHg , 1029.8 hPa
Clouds: Clear
Visibility: 10 miles , 16 km
2017/10/22 13:51 KABE 221351Z 00000KT 10SM CLR 13/08 A3041 RMK AO2 SLP299 T01330083
 
KIPT - Williamsport, Pennsylvania, USA
Distance from station: N 170mi, 274km
Updated: Sun, 22-Oct-2017 8:54am EDT
Few Clouds
Few Clouds
 Wind from calm
Wind: Calm
Temperature: 48°F , 9°C
Dew Point: 45°F , 7°C
Humidity: 87%
Barometer: 30.39 inHg , 1029.1 hPa
Clouds: Few Clouds
Visibility: 10 miles , 16 km
Cloud details: Few Clouds 300 ft
2017/10/22 12:54 KIPT 221254Z 00000KT 10SM FEW003 09/07 A3039 RMK AO2 SLP291 VSBY NE-SE 1 T00890067
KAGC - Pittsburg/West Mifflin, Pennsylvania, USA
Distance from station: NW 170mi, 273km
Updated: Sun, 22-Oct-2017 8:53am EDT
Haze, Clear
Haze, Clear
 Wind from SSE
Wind: SSE 5 mph , 7 km/h
Temperature: 55°F , 13°C
Dew Point: 48°F , 9°C
Humidity: 77%
Barometer: 30.31 inHg , 1026.4 hPa
Summary: Haze
Clouds: Clear
Visibility: 5 miles , 8 km
2017/10/22 12:53 KAGC 221253Z 15004KT 5SM HZ CLR 13/09 A3031 RMK AO2 SLP265 LO LVL VLY FG T01280094 $
KAFJ - Washington, Pennsylvania, USA
Distance from station: WNW 176mi, 284km
Updated: Sun, 22-Oct-2017 8:56am EDT
Clear
Clear
 Wind from SW
Wind: SW 5 mph , 7 km/h
Temperature: 50°F , 10°C
Wind Chill: 48°F , 9°C
Dew Point: 48°F , 9°C
Humidity: 94%
Barometer: 30.33 inHg , 1027.1 hPa
Clouds: Clear
Visibility: 10 miles , 16 km
2017/10/22 12:56 KAFJ 221256Z AUTO 22004KT 10SM CLR 10/09 A3033 RMK AO2 SLP272 T01000089
 
KDUJ - DuBois/Falls Creek, Pennsylvania, USA
Distance from station: NNW 180mi, 290km
Updated: Sun, 22-Oct-2017 8:53am EDT
Clear
Clear
 Wind from ESE
Wind: ESE 7 mph , 11 km/h
Temperature: 55°F , 13°C
Dew Point: 45°F , 7°C
Humidity: 67%
Barometer: 30.34 inHg , 1027.4 hPa
Clouds: Clear
Visibility: 10 miles , 16 km
2017/10/22 12:53 KDUJ 221253Z AUTO 11006KT 10SM CLR 13/07 A3034 RMK AO2 SLP270 T01330067
KBTP - Butler, Pennsylvania, USA
Distance from station: NW 190mi, 306km
Updated: Sun, 22-Oct-2017 8:56am EDT
Clear
Clear
 Wind from calm
Wind: Calm
Temperature: 50°F , 10°C
Dew Point: 48°F , 9°C
Humidity: 94%
Barometer: 30.32 inHg , 1026.8 hPa
Clouds: Clear
Visibility: 10 miles , 16 km
2017/10/22 12:56 KBTP 221256Z AUTO 00000KT 10SM CLR 10/09 A3032 RMK AO2 SLP273 T01000089
KPIT - Pittsburg, Pennsylvania, USA
Distance from station: NW 191mi, 307km
Updated: Sun, 22-Oct-2017 9:51am EDT
Mostly cloudy
Mostly cloudy
 Wind from SSE
Wind: SSE 6 mph , 9 km/h
Temperature: 59°F , 15°C
Dew Point: 54°F , 12°C
Humidity: 82%
Barometer: 30.31 inHg , 1026.4 hPa
Clouds: Mostly cloudy
Visibility: 10 miles , 16 km
Cloud details: Mostly cloudy 25000 ft
2017/10/22 13:51 KPIT 221351Z 15005KT 10SM BKN250 15/12 A3031 RMK AO2 SLP269 T01500117
 
KMPO - Mount Pokono, Pennsylvania, USA
Distance from station: NNE 193mi, 310km
Updated: Sun, 22-Oct-2017 8:53am EDT
Clear
Clear
 Wind from calm
Wind: Calm
Temperature: 57°F , 14°C
Dew Point: 52°F , 11°C
Humidity: 82%
Barometer: 30.42 inHg , 1030.1 hPa
Clouds: Clear
Visibility: 10 miles , 16 km
2017/10/22 12:53 KMPO 221253Z AUTO 00000KT 10SM CLR 14/11 A3042 RMK AO2 SLP305 T01390106 PWINO $
KAVP - Wilkes-Barre, Pennsylvania, USA
Distance from station: NNE 196mi, 315km
Updated: Sun, 22-Oct-2017 8:54am EDT
Clear
Clear
 Wind from calm
Wind: Calm
Temperature: 52°F , 11°C
Dew Point: 45°F , 7°C
Humidity: 77%
Barometer: 30.41 inHg , 1029.8 hPa
Clouds: Clear
Visibility: 10 miles , 16 km
2017/10/22 12:54 KAVP 221254Z 00000KT 10SM CLR 11/07 A3041 RMK AO2 SLP297 T01060067
KBVI - Beaverfalls, Pennsylvania, USA
Distance from station: NW 208mi, 334km
Updated: Sat, 21-Oct-2017 4:47pm EDT
NOT Current
Clear
Clear
 Wind from SE
Wind: SE 5 mph , 7 km/h
Temperature: 72°F , 22°C
Dew Point: 52°F , 11°C
Humidity: 50%
Barometer: 30.26 inHg , 1024.7 hPa
Clouds: Clear
Visibility: 10 miles , 16 km
2017/10/21 20:47 KBVI 212047Z 14004KT 10SM CLR 22/11 A3026 RMK LAST
 
KBFD - Bradford, Pennsylvania, USA
Distance from station: NNW 216mi, 347km
Updated: Sun, 22-Oct-2017 8:53am EDT
Clear
Clear
 Wind from SE
Wind: SE 5 mph , 7 km/h
Temperature: 48°F , 9°C
Wind Chill: 46°F , 8°C
Dew Point: 45°F , 7°C
Humidity: 87%
Barometer: 30.35 inHg , 1027.8 hPa
Clouds: Clear
Visibility: 10 miles , 16 km
2017/10/22 12:53 KBFD 221253Z AUTO 13004KT 10SM CLR 09/07 A3035 RMK AO2 SLP278 T00940072
KFKL - Franklin, Pennsylvania, USA
Distance from station: NW 218mi, 352km
Updated: Sun, 22-Oct-2017 8:56am EDT
Clear
Clear
 Wind from ESE
Wind: ESE 5 mph , 7 km/h
Temperature: 52°F , 11°C
Dew Point: 46°F , 8°C
Humidity: 82%
Barometer: 30.32 inHg , 1026.8 hPa
Clouds: Clear
Visibility: 10 miles , 16 km
2017/10/22 12:56 KFKL 221256Z AUTO 12004KT 10SM CLR 11/08 A3032 RMK AO2 SLP267 T01110083
KUCP - New Castle Muni, Pennsylvania, USA
Distance from station: NW 221mi, 355km
Updated: Sun, 22-Oct-2017 8:56am EDT
Mist, Clear
Mist, Clear
 Wind from calm
Wind: Calm
Temperature: 52°F , 11°C
Dew Point: 52°F , 11°C
Humidity: 100%
Barometer: 30.31 inHg , 1026.4 hPa
Summary: Mist
Clouds: Clear
Visibility: 4 miles , 6 km
2017/10/22 12:56 KUCP 221256Z AUTO 00000KT 4SM BR CLR 11/11 A3031 RMK AO2 SLP278 T01060106
 
KERI - Erie, Pennsylvania, USA
Distance from station: NW 269mi, 432km
Updated: Sun, 22-Oct-2017 9:51am EDT
Clear
Clear
 Wind from S
Wind: S 15 mph , 24 km/h
Temperature: 63°F , 17°C
Dew Point: 50°F , 10°C
Humidity: 64%
Barometer: 30.25 inHg , 1024.4 hPa
Clouds: Clear
Visibility: 10 miles , 16 km
2017/10/22 13:51 KERI 221351Z 17013KT 10SM CLR 17/10 A3025 RMK AO2 SLP242 T01720100